sensor_id;sensor_type;location;lat;lon;timestamp;P1;durP1;ratioP1;P2;durP2;ratioP2
417;SDS011;49;48.530;9.200;2023-06-26T00:02:14;11.63;;;9.40;;
417;SDS011;49;48.530;9.200;2023-06-26T00:04:58;17.20;;;9.73;;
417;SDS011;49;48.530;9.200;2023-06-26T00:10:29;13.90;;;10.43;;
417;SDS011;49;48.530;9.200;2023-06-26T00:13:00;17.10;;;10.43;;
417;SDS011;49;48.530;9.200;2023-06-26T00:15:38;13.57;;;10.63;;
417;SDS011;49;48.530;9.200;2023-06-26T00:18:24;11.40;;;9.33;;
417;SDS011;49;48.530;9.200;2023-06-26T00:20:56;14.57;;;9.80;;
417;SDS011;49;48.530;9.200;2023-06-26T00:23:31;14.37;;;10.80;;
417;SDS011;49;48.530;9.200;2023-06-26T00:26:04;18.50;;;10.40;;
417;SDS011;49;48.530;9.200;2023-06-26T00:28:46;15.03;;;10.40;;
417;SDS011;49;48.530;9.200;2023-06-26T00:31:14;14.30;;;10.37;;
417;SDS011;49;48.530;9.200;2023-06-26T00:33:59;12.87;;;9.77;;
417;SDS011;49;48.530;9.200;2023-06-26T00:36:44;14.70;;;10.30;;
417;SDS011;49;48.530;9.200;2023-06-26T00:39:15;14.43;;;9.37;;
417;SDS011;49;48.530;9.200;2023-06-26T00:42:02;12.77;;;9.30;;
417;SDS011;49;48.530;9.200;2023-06-26T00:44:42;14.10;;;9.93;;
417;SDS011;49;48.530;9.200;2023-06-26T00:47:18;16.17;;;11.30;;
417;SDS011;49;48.530;9.200;2023-06-26T00:49:50;15.10;;;10.63;;
417;SDS011;49;48.530;9.200;2023-06-26T00:52:28;14.97;;;11.60;;
417;SDS011;49;48.530;9.200;2023-06-26T00:54:59;14.33;;;10.57;;
417;SDS011;49;48.530;9.200;2023-06-26T00:57:46;14.20;;;10.30;;
417;SDS011;49;48.530;9.200;2023-06-26T01:00:30;18.77;;;11.03;;
417;SDS011;49;48.530;9.200;2023-06-26T01:03:04;15.00;;;10.30;;
417;SDS011;49;48.530;9.200;2023-06-26T01:05:44;13.60;;;9.90;;
417;SDS011;49;48.530;9.200;2023-06-26T01:08:16;14.90;;;10.20;;
417;SDS011;49;48.530;9.200;2023-06-26T01:10:53;18.90;;;9.90;;
417;SDS011;49;48.530;9.200;2023-06-26T01:13:56;14.40;;;9.57;;
417;SDS011;49;48.530;9.200;2023-06-26T01:16:31;14.07;;;10.30;;
417;SDS011;49;48.530;9.200;2023-06-26T01:19:23;23.13;;;10.50;;
417;SDS011;49;48.530;9.200;2023-06-26T01:22:06;13.53;;;10.60;;
417;SDS011;49;48.530;9.200;2023-06-26T01:24:59;15.30;;;10.70;;
417;SDS011;49;48.530;9.200;2023-06-26T01:27:48;17.13;;;10.70;;
417;SDS011;49;48.530;9.200;2023-06-26T01:41:16;12.57;;;9.60;;
417;SDS011;49;48.530;9.200;2023-06-26T01:43:50;15.10;;;10.20;;
417;SDS011;49;48.530;9.200;2023-06-26T01:46:46;15.87;;;10.30;;
417;SDS011;49;48.530;9.200;2023-06-26T01:49:25;14.40;;;10.27;;
417;SDS011;49;48.530;9.200;2023-06-26T01:52:01;17.07;;;10.67;;
417;SDS011;49;48.530;9.200;2023-06-26T01:54:37;15.77;;;10.37;;
417;SDS011;49;48.530;9.200;2023-06-26T01:57:42;16.90;;;10.83;;
417;SDS011;49;48.530;9.200;2023-06-26T02:00:40;15.43;;;10.03;;
417;SDS011;49;48.530;9.200;2023-06-26T02:03:17;14.87;;;10.87;;
417;SDS011;49;48.530;9.200;2023-06-26T02:05:54;15.03;;;10.13;;
417;SDS011;49;48.530;9.200;2023-06-26T02:08:42;24.30;;;11.53;;
417;SDS011;49;48.530;9.200;2023-06-26T02:11:16;15.30;;;10.13;;
417;SDS011;49;48.530;9.200;2023-06-26T02:14:09;15.60;;;9.90;;
417;SDS011;49;48.530;9.200;2023-06-26T02:16:49;23.87;;;11.07;;
417;SDS011;49;48.530;9.200;2023-06-26T02:19:25;13.00;;;9.80;;
417;SDS011;49;48.530;9.200;2023-06-26T02:21:52;37.67;;;10.70;;
417;SDS011;49;48.530;9.200;2023-06-26T02:24:19;15.80;;;11.13;;
417;SDS011;49;48.530;9.200;2023-06-26T02:26:47;15.73;;;10.13;;
417;SDS011;49;48.530;9.200;2023-06-26T02:29:29;19.00;;;10.10;;
417;SDS011;49;48.530;9.200;2023-06-26T02:32:03;14.33;;;9.90;;
417;SDS011;49;48.530;9.200;2023-06-26T02:34:43;17.40;;;10.50;;
417;SDS011;49;48.530;9.200;2023-06-26T02:37:42;20.90;;;10.40;;
417;SDS011;49;48.530;9.200;2023-06-26T02:40:20;14.63;;;9.87;;
417;SDS011;49;48.530;9.200;2023-06-26T02:43:00;18.57;;;11.37;;
417;SDS011;49;48.530;9.200;2023-06-26T02:46:07;13.40;;;10.37;;
417;SDS011;49;48.530;9.200;2023-06-26T02:51:44;14.87;;;10.37;;
417;SDS011;49;48.530;9.200;2023-06-26T02:54:33;17.57;;;11.17;;
417;SDS011;49;48.530;9.200;2023-06-26T02:57:13;15.10;;;10.50;;
417;SDS011;49;48.530;9.200;2023-06-26T02:59:48;17.53;;;10.50;;
417;SDS011;49;48.530;9.200;2023-06-26T03:02:20;14.30;;;10.53;;
417;SDS011;49;48.530;9.200;2023-06-26T03:05:05;15.33;;;10.13;;
417;SDS011;49;48.530;9.200;2023-06-26T03:07:38;16.03;;;10.67;;
417;SDS011;49;48.530;9.200;2023-06-26T03:10:20;17.83;;;10.93;;
417;SDS011;49;48.530;9.200;2023-06-26T03:13:10;17.70;;;10.00;;
417;SDS011;49;48.530;9.200;2023-06-26T03:15:44;23.83;;;11.30;;
417;SDS011;49;48.530;9.200;2023-06-26T03:18:36;16.33;;;10.60;;
417;SDS011;49;48.530;9.200;2023-06-26T03:21:17;17.60;;;10.40;;
417;SDS011;49;48.530;9.200;2023-06-26T03:23:59;13.47;;;9.93;;
417;SDS011;49;48.530;9.200;2023-06-26T03:26:29;14.37;;;11.23;;
417;SDS011;49;48.530;9.200;2023-06-26T03:29:12;21.80;;;12.70;;
417;SDS011;49;48.530;9.200;2023-06-26T03:31:44;15.07;;;10.93;;
417;SDS011;49;48.530;9.200;2023-06-26T03:34:21;14.57;;;10.80;;
417;SDS011;49;48.530;9.200;2023-06-26T03:36:53;14.40;;;10.37;;
417;SDS011;49;48.530;9.200;2023-06-26T03:39:27;15.70;;;11.17;;
417;SDS011;49;48.530;9.200;2023-06-26T03:42:08;19.00;;;10.43;;
417;SDS011;49;48.530;9.200;2023-06-26T03:44:52;14.60;;;10.07;;
417;SDS011;49;48.530;9.200;2023-06-26T03:47:28;16.00;;;10.70;;
417;SDS011;49;48.530;9.200;2023-06-26T03:50:03;18.30;;;10.90;;
417;SDS011;49;48.530;9.200;2023-06-26T03:52:48;13.97;;;10.67;;
417;SDS011;49;48.530;9.200;2023-06-26T03:55:26;14.67;;;10.47;;
417;SDS011;49;48.530;9.200;2023-06-26T03:58:05;13.40;;;10.63;;
417;SDS011;49;48.530;9.200;2023-06-26T04:00:37;17.57;;;10.13;;
417;SDS011;49;48.530;9.200;2023-06-26T04:03:14;16.63;;;10.97;;
417;SDS011;49;48.530;9.200;2023-06-26T04:05:53;16.73;;;10.27;;
417;SDS011;49;48.530;9.200;2023-06-26T04:08:26;15.43;;;10.53;;
417;SDS011;49;48.530;9.200;2023-06-26T04:11:00;15.43;;;10.23;;
417;SDS011;49;48.530;9.200;2023-06-26T04:13:29;17.10;;;8.90;;
417;SDS011;49;48.530;9.200;2023-06-26T04:16:00;14.00;;;9.77;;
417;SDS011;49;48.530;9.200;2023-06-26T04:18:41;13.30;;;9.40;;
417;SDS011;49;48.530;9.200;2023-06-26T04:21:29;20.97;;;10.00;;
417;SDS011;49;48.530;9.200;2023-06-26T04:24:07;14.67;;;10.37;;
417;SDS011;49;48.530;9.200;2023-06-26T04:26:40;13.90;;;10.10;;
417;SDS011;49;48.530;9.200;2023-06-26T04:29:25;16.30;;;10.30;;
417;SDS011;49;48.530;9.200;2023-06-26T04:32:03;18.80;;;9.70;;
417;SDS011;49;48.530;9.200;2023-06-26T04:34:39;20.13;;;9.87;;
417;SDS011;49;48.530;9.200;2023-06-26T04:37:28;13.40;;;9.90;;
417;SDS011;49;48.530;9.200;2023-06-26T04:39:58;15.67;;;8.97;;
417;SDS011;49;48.530;9.200;2023-06-26T04:42:41;17.70;;;10.77;;
417;SDS011;49;48.530;9.200;2023-06-26T04:45:12;13.17;;;9.63;;
417;SDS011;49;48.530;9.200;2023-06-26T04:48:00;22.23;;;10.80;;
417;SDS011;49;48.530;9.200;2023-06-26T04:50:44;10.60;;;8.80;;
417;SDS011;49;48.530;9.200;2023-06-26T04:53:21;13.77;;;9.47;;
417;SDS011;49;48.530;9.200;2023-06-26T04:55:50;13.00;;;9.17;;
417;SDS011;49;48.530;9.200;2023-06-26T04:58:18;24.30;;;10.33;;
417;SDS011;49;48.530;9.200;2023-06-26T05:00:48;11.90;;;9.03;;
417;SDS011;49;48.530;9.200;2023-06-26T05:03:17;15.50;;;10.40;;
417;SDS011;49;48.530;9.200;2023-06-26T05:05:45;12.97;;;9.23;;
417;SDS011;49;48.530;9.200;2023-06-26T05:08:13;28.87;;;11.03;;
417;SDS011;49;48.530;9.200;2023-06-26T05:10:42;11.60;;;9.20;;
417;SDS011;49;48.530;9.200;2023-06-26T05:13:10;11.80;;;9.03;;
417;SDS011;49;48.530;9.200;2023-06-26T05:15:40;20.03;;;10.07;;
417;SDS011;49;48.530;9.200;2023-06-26T05:18:07;14.70;;;10.30;;
417;SDS011;49;48.530;9.200;2023-06-26T05:20:37;19.60;;;10.20;;
417;SDS011;49;48.530;9.200;2023-06-26T05:23:04;13.80;;;9.83;;
417;SDS011;49;48.530;9.200;2023-06-26T05:25:32;12.77;;;9.57;;
417;SDS011;49;48.530;9.200;2023-06-26T05:28:01;12.60;;;9.07;;
417;SDS011;49;48.530;9.200;2023-06-26T05:30:30;13.37;;;9.87;;
417;SDS011;49;48.530;9.200;2023-06-26T05:33:00;13.23;;;9.80;;
417;SDS011;49;48.530;9.200;2023-06-26T05:35:28;11.70;;;9.50;;
417;SDS011;49;48.530;9.200;2023-06-26T05:37:56;16.47;;;9.10;;
417;SDS011;49;48.530;9.200;2023-06-26T05:40:24;13.00;;;9.00;;
417;SDS011;49;48.530;9.200;2023-06-26T05:42:52;18.57;;;9.57;;
417;SDS011;49;48.530;9.200;2023-06-26T05:45:20;13.70;;;9.67;;
417;SDS011;49;48.530;9.200;2023-06-26T05:47:47;18.00;;;8.83;;
417;SDS011;49;48.530;9.200;2023-06-26T05:50:17;16.20;;;8.80;;
417;SDS011;49;48.530;9.200;2023-06-26T05:52:45;14.77;;;8.40;;
417;SDS011;49;48.530;9.200;2023-06-26T05:55:13;12.00;;;9.00;;
417;SDS011;49;48.530;9.200;2023-06-26T05:57:43;11.20;;;8.10;;
417;SDS011;49;48.530;9.200;2023-06-26T06:00:12;22.33;;;9.00;;
417;SDS011;49;48.530;9.200;2023-06-26T06:02:43;19.30;;;7.87;;
417;SDS011;49;48.530;9.200;2023-06-26T06:05:13;15.57;;;8.43;;
417;SDS011;49;48.530;9.200;2023-06-26T06:07:40;11.80;;;8.57;;
417;SDS011;49;48.530;9.200;2023-06-26T06:10:08;11.53;;;8.13;;
417;SDS011;49;48.530;9.200;2023-06-26T06:12:39;10.33;;;7.50;;
417;SDS011;49;48.530;9.200;2023-06-26T06:15:07;14.30;;;8.77;;
417;SDS011;49;48.530;9.200;2023-06-26T06:17:35;11.40;;;7.87;;
417;SDS011;49;48.530;9.200;2023-06-26T06:20:04;12.53;;;7.80;;
417;SDS011;49;48.530;9.200;2023-06-26T06:22:32;12.33;;;8.43;;
417;SDS011;49;48.530;9.200;2023-06-26T06:24:59;13.10;;;7.97;;
417;SDS011;49;48.530;9.200;2023-06-26T06:27:27;18.57;;;8.20;;
417;SDS011;49;48.530;9.200;2023-06-26T06:29:55;19.60;;;7.80;;
417;SDS011;49;48.530;9.200;2023-06-26T06:32:23;13.50;;;7.83;;
417;SDS011;49;48.530;9.200;2023-06-26T06:34:50;11.30;;;7.70;;
417;SDS011;49;48.530;9.200;2023-06-26T06:37:19;11.53;;;7.77;;
417;SDS011;49;48.530;9.200;2023-06-26T06:39:47;11.07;;;7.70;;
417;SDS011;49;48.530;9.200;2023-06-26T06:42:14;12.80;;;7.93;;
417;SDS011;49;48.530;9.200;2023-06-26T06:44:41;14.70;;;7.87;;
417;SDS011;49;48.530;9.200;2023-06-26T06:47:10;18.43;;;8.93;;
417;SDS011;49;48.530;9.200;2023-06-26T06:49:37;9.73;;;7.67;;
417;SDS011;49;48.530;9.200;2023-06-26T06:52:05;15.20;;;7.27;;
417;SDS011;49;48.530;9.200;2023-06-26T06:54:34;10.40;;;7.23;;
417;SDS011;49;48.530;9.200;2023-06-26T06:57:18;17.57;;;7.83;;
417;SDS011;49;48.530;9.200;2023-06-26T06:59:45;12.50;;;7.33;;
417;SDS011;49;48.530;9.200;2023-06-26T07:02:13;23.43;;;6.93;;
417;SDS011;49;48.530;9.200;2023-06-26T07:04:44;17.63;;;7.37;;
417;SDS011;49;48.530;9.200;2023-06-26T07:07:12;15.30;;;8.30;;
417;SDS011;49;48.530;9.200;2023-06-26T07:09:41;10.50;;;7.80;;
417;SDS011;49;48.530;9.200;2023-06-26T07:12:09;9.10;;;6.80;;
417;SDS011;49;48.530;9.200;2023-06-26T07:14:38;16.13;;;7.37;;
417;SDS011;49;48.530;9.200;2023-06-26T07:17:06;14.23;;;6.57;;
417;SDS011;49;48.530;9.200;2023-06-26T07:19:34;10.20;;;6.97;;
417;SDS011;49;48.530;9.200;2023-06-26T07:22:03;10.00;;;7.30;;
417;SDS011;49;48.530;9.200;2023-06-26T07:24:31;10.50;;;6.90;;
417;SDS011;49;48.530;9.200;2023-06-26T07:27:01;13.20;;;7.17;;
417;SDS011;49;48.530;9.200;2023-06-26T07:29:32;10.03;;;7.30;;
417;SDS011;49;48.530;9.200;2023-06-26T07:32:01;8.77;;;7.33;;
417;SDS011;49;48.530;9.200;2023-06-26T07:34:28;12.87;;;6.90;;
417;SDS011;49;48.530;9.200;2023-06-26T07:36:58;8.23;;;6.77;;
417;SDS011;49;48.530;9.200;2023-06-26T07:39:25;9.47;;;7.37;;
417;SDS011;49;48.530;9.200;2023-06-26T07:41:52;10.07;;;7.10;;
417;SDS011;49;48.530;9.200;2023-06-26T07:44:21;8.60;;;6.50;;
417;SDS011;49;48.530;9.200;2023-06-26T07:46:48;8.63;;;6.63;;
417;SDS011;49;48.530;9.200;2023-06-26T07:49:17;8.50;;;5.90;;
417;SDS011;49;48.530;9.200;2023-06-26T07:51:44;9.17;;;6.83;;
417;SDS011;49;48.530;9.200;2023-06-26T07:54:11;11.97;;;7.17;;
417;SDS011;49;48.530;9.200;2023-06-26T07:56:54;9.07;;;6.40;;
417;SDS011;49;48.530;9.200;2023-06-26T07:59:26;9.20;;;6.10;;
417;SDS011;49;48.530;9.200;2023-06-26T08:01:55;8.73;;;7.00;;
417;SDS011;49;48.530;9.200;2023-06-26T08:04:29;9.07;;;6.67;;
417;SDS011;49;48.530;9.200;2023-06-26T08:06:57;12.07;;;6.53;;
417;SDS011;49;48.530;9.200;2023-06-26T08:09:25;11.63;;;7.30;;
417;SDS011;49;48.530;9.200;2023-06-26T08:11:53;14.43;;;7.13;;
417;SDS011;49;48.530;9.200;2023-06-26T08:14:20;14.20;;;6.83;;
417;SDS011;49;48.530;9.200;2023-06-26T08:16:50;11.20;;;7.13;;
417;SDS011;49;48.530;9.200;2023-06-26T08:19:17;8.67;;;6.40;;
417;SDS011;49;48.530;9.200;2023-06-26T08:21:46;14.37;;;6.57;;
417;SDS011;49;48.530;9.200;2023-06-26T08:24:13;9.50;;;6.10;;
417;SDS011;49;48.530;9.200;2023-06-26T08:26:44;9.00;;;6.60;;
417;SDS011;49;48.530;9.200;2023-06-26T08:29:12;11.67;;;6.70;;
417;SDS011;49;48.530;9.200;2023-06-26T08:31:40;10.40;;;6.70;;
417;SDS011;49;48.530;9.200;2023-06-26T08:34:09;13.80;;;6.63;;
417;SDS011;49;48.530;9.200;2023-06-26T08:36:36;10.03;;;6.30;;
417;SDS011;49;48.530;9.200;2023-06-26T08:39:03;8.10;;;6.50;;
417;SDS011;49;48.530;9.200;2023-06-26T08:41:31;9.60;;;7.10;;
417;SDS011;49;48.530;9.200;2023-06-26T08:44:01;17.47;;;6.47;;
417;SDS011;49;48.530;9.200;2023-06-26T08:46:29;8.63;;;5.93;;
417;SDS011;49;48.530;9.200;2023-06-26T08:48:59;7.97;;;5.80;;
417;SDS011;49;48.530;9.200;2023-06-26T08:51:29;10.17;;;6.57;;
417;SDS011;49;48.530;9.200;2023-06-26T08:53:59;7.07;;;6.00;;
417;SDS011;49;48.530;9.200;2023-06-26T08:56:27;11.60;;;5.90;;
417;SDS011;49;48.530;9.200;2023-06-26T08:58:58;16.83;;;6.13;;
417;SDS011;49;48.530;9.200;2023-06-26T09:01:25;10.97;;;6.63;;
417;SDS011;49;48.530;9.200;2023-06-26T09:03:52;9.57;;;6.23;;
417;SDS011;49;48.530;9.200;2023-06-26T09:06:19;8.77;;;5.97;;
417;SDS011;49;48.530;9.200;2023-06-26T09:08:48;7.63;;;5.10;;
417;SDS011;49;48.530;9.200;2023-06-26T09:11:15;9.53;;;6.53;;
417;SDS011;49;48.530;9.200;2023-06-26T09:13:42;11.73;;;5.80;;
417;SDS011;49;48.530;9.200;2023-06-26T09:16:12;12.07;;;6.60;;
417;SDS011;49;48.530;9.200;2023-06-26T09:18:42;10.00;;;5.90;;
417;SDS011;49;48.530;9.200;2023-06-26T09:21:12;8.00;;;6.70;;
417;SDS011;49;48.530;9.200;2023-06-26T09:23:40;10.50;;;6.80;;
417;SDS011;49;48.530;9.200;2023-06-26T09:26:09;6.53;;;5.70;;
417;SDS011;49;48.530;9.200;2023-06-26T09:28:38;6.47;;;5.60;;
417;SDS011;49;48.530;9.200;2023-06-26T09:31:07;12.53;;;6.40;;
417;SDS011;49;48.530;9.200;2023-06-26T09:33:38;7.47;;;5.70;;
417;SDS011;49;48.530;9.200;2023-06-26T09:36:07;14.70;;;6.40;;
417;SDS011;49;48.530;9.200;2023-06-26T09:38:35;8.63;;;6.07;;
417;SDS011;49;48.530;9.200;2023-06-26T09:41:03;10.07;;;6.20;;
417;SDS011;49;48.530;9.200;2023-06-26T09:43:32;7.13;;;5.83;;
417;SDS011;49;48.530;9.200;2023-06-26T09:45:59;11.60;;;6.40;;
417;SDS011;49;48.530;9.200;2023-06-26T09:48:27;10.53;;;5.97;;
417;SDS011;49;48.530;9.200;2023-06-26T09:50:55;9.30;;;5.57;;
417;SDS011;49;48.530;9.200;2023-06-26T09:53:22;12.33;;;6.13;;
417;SDS011;49;48.530;9.200;2023-06-26T09:55:49;6.00;;;5.10;;
417;SDS011;49;48.530;9.200;2023-06-26T09:58:17;8.30;;;6.03;;
417;SDS011;49;48.530;9.200;2023-06-26T10:00:46;7.80;;;5.97;;
417;SDS011;49;48.530;9.200;2023-06-26T10:03:13;11.53;;;6.23;;
417;SDS011;49;48.530;9.200;2023-06-26T10:05:40;6.00;;;5.57;;
417;SDS011;49;48.530;9.200;2023-06-26T10:08:11;10.23;;;6.50;;
417;SDS011;49;48.530;9.200;2023-06-26T10:10:39;6.40;;;5.80;;
417;SDS011;49;48.530;9.200;2023-06-26T10:13:08;10.93;;;5.73;;
417;SDS011;49;48.530;9.200;2023-06-26T10:15:41;10.70;;;5.63;;
417;SDS011;49;48.530;9.200;2023-06-26T10:18:12;7.53;;;6.00;;
417;SDS011;49;48.530;9.200;2023-06-26T10:20:42;9.30;;;5.60;;
417;SDS011;49;48.530;9.200;2023-06-26T10:23:11;9.90;;;6.10;;
417;SDS011;49;48.530;9.200;2023-06-26T10:25:42;7.97;;;5.57;;
417;SDS011;49;48.530;9.200;2023-06-26T10:28:12;10.13;;;5.80;;
417;SDS011;49;48.530;9.200;2023-06-26T10:30:41;6.03;;;5.30;;
417;SDS011;49;48.530;9.200;2023-06-26T10:33:11;11.97;;;6.13;;
417;SDS011;49;48.530;9.200;2023-06-26T10:35:43;10.47;;;6.20;;
417;SDS011;49;48.530;9.200;2023-06-26T10:38:10;12.67;;;6.13;;
417;SDS011;49;48.530;9.200;2023-06-26T10:40:41;9.47;;;6.00;;
417;SDS011;49;48.530;9.200;2023-06-26T10:43:11;7.47;;;6.33;;
417;SDS011;49;48.530;9.200;2023-06-26T10:45:44;11.80;;;7.10;;
417;SDS011;49;48.530;9.200;2023-06-26T10:51:40;10.23;;;6.57;;
417;SDS011;49;48.530;9.200;2023-06-26T10:54:20;11.07;;;6.47;;
417;SDS011;49;48.530;9.200;2023-06-26T10:56:58;11.43;;;6.33;;
417;SDS011;49;48.530;9.200;2023-06-26T10:59:28;9.00;;;6.17;;
417;SDS011;49;48.530;9.200;2023-06-26T11:02:04;6.60;;;6.00;;
417;SDS011;49;48.530;9.200;2023-06-26T11:04:38;11.70;;;6.43;;
417;SDS011;49;48.530;9.200;2023-06-26T11:07:25;6.87;;;6.10;;
417;SDS011;49;48.530;9.200;2023-06-26T11:10:09;11.70;;;6.03;;
417;SDS011;49;48.530;9.200;2023-06-26T11:12:54;9.40;;;6.23;;
417;SDS011;49;48.530;9.200;2023-06-26T11:15:42;8.37;;;6.37;;
417;SDS011;49;48.530;9.200;2023-06-26T11:18:10;8.07;;;6.27;;
417;SDS011;49;48.530;9.200;2023-06-26T11:20:47;9.77;;;6.40;;
417;SDS011;49;48.530;9.200;2023-06-26T11:23:42;24.77;;;7.53;;
417;SDS011;49;48.530;9.200;2023-06-26T11:28:52;8.80;;;6.30;;
417;SDS011;49;48.530;9.200;2023-06-26T11:31:39;11.93;;;6.57;;
417;SDS011;49;48.530;9.200;2023-06-26T11:34:10;7.20;;;6.40;;
417;SDS011;49;48.530;9.200;2023-06-26T11:36:51;13.70;;;7.30;;
417;SDS011;49;48.530;9.200;2023-06-26T11:39:49;17.73;;;7.20;;
417;SDS011;49;48.530;9.200;2023-06-26T11:42:20;20.90;;;6.73;;
417;SDS011;49;48.530;9.200;2023-06-26T11:44:53;8.70;;;6.87;;
417;SDS011;49;48.530;9.200;2023-06-26T11:47:25;9.57;;;7.00;;
417;SDS011;49;48.530;9.200;2023-06-26T11:50:01;8.80;;;6.93;;
417;SDS011;49;48.530;9.200;2023-06-26T11:52:42;12.10;;;6.40;;
417;SDS011;49;48.530;9.200;2023-06-26T11:58:32;11.57;;;7.30;;
417;SDS011;49;48.530;9.200;2023-06-26T12:01:15;10.37;;;7.20;;
417;SDS011;49;48.530;9.200;2023-06-26T12:03:48;18.97;;;7.17;;
417;SDS011;49;48.530;9.200;2023-06-26T12:06:28;8.20;;;6.33;;
417;SDS011;49;48.530;9.200;2023-06-26T12:09:17;16.03;;;7.00;;
417;SDS011;49;48.530;9.200;2023-06-26T12:14:50;13.50;;;7.37;;
417;SDS011;49;48.530;9.200;2023-06-26T12:17:25;14.13;;;7.30;;
417;SDS011;49;48.530;9.200;2023-06-26T12:19:58;10.23;;;6.93;;
417;SDS011;49;48.530;9.200;2023-06-26T12:22:34;9.03;;;6.43;;
417;SDS011;49;48.530;9.200;2023-06-26T12:25:13;17.63;;;6.90;;
417;SDS011;49;48.530;9.200;2023-06-26T12:27:51;8.47;;;6.43;;
417;SDS011;49;48.530;9.200;2023-06-26T12:30:23;10.23;;;6.80;;
417;SDS011;49;48.530;9.200;2023-06-26T12:32:57;11.17;;;6.70;;
417;SDS011;49;48.530;9.200;2023-06-26T12:35:30;13.77;;;7.40;;
417;SDS011;49;48.530;9.200;2023-06-26T12:38:14;9.57;;;6.90;;
417;SDS011;49;48.530;9.200;2023-06-26T12:40:45;11.10;;;7.63;;
417;SDS011;49;48.530;9.200;2023-06-26T12:43:25;10.40;;;7.23;;
417;SDS011;49;48.530;9.200;2023-06-26T12:45:55;14.80;;;6.73;;
417;SDS011;49;48.530;9.200;2023-06-26T12:48:38;17.57;;;7.57;;
417;SDS011;49;48.530;9.200;2023-06-26T12:51:21;14.87;;;6.80;;
417;SDS011;49;48.530;9.200;2023-06-26T12:54:15;8.33;;;6.80;;
417;SDS011;49;48.530;9.200;2023-06-26T12:56:44;9.47;;;6.80;;
417;SDS011;49;48.530;9.200;2023-06-26T12:59:21;13.67;;;6.83;;
417;SDS011;49;48.530;9.200;2023-06-26T13:01:49;12.90;;;7.23;;
417;SDS011;49;48.530;9.200;2023-06-26T13:04:18;11.63;;;7.33;;
417;SDS011;49;48.530;9.200;2023-06-26T13:06:47;20.67;;;6.60;;
417;SDS011;49;48.530;9.200;2023-06-26T13:09:15;7.53;;;6.23;;
417;SDS011;49;48.530;9.200;2023-06-26T13:11:44;10.30;;;7.40;;
417;SDS011;49;48.530;9.200;2023-06-26T13:14:13;12.40;;;7.47;;
417;SDS011;49;48.530;9.200;2023-06-26T13:16:48;8.00;;;6.50;;
417;SDS011;49;48.530;9.200;2023-06-26T13:19:15;8.60;;;7.23;;
417;SDS011;49;48.530;9.200;2023-06-26T13:21:42;11.30;;;7.43;;
417;SDS011;49;48.530;9.200;2023-06-26T13:24:10;9.13;;;7.00;;
417;SDS011;49;48.530;9.200;2023-06-26T13:26:38;10.67;;;6.50;;
417;SDS011;49;48.530;9.200;2023-06-26T13:29:07;12.00;;;7.47;;
417;SDS011;49;48.530;9.200;2023-06-26T13:31:34;10.13;;;7.40;;
417;SDS011;49;48.530;9.200;2023-06-26T13:34:07;21.37;;;7.50;;
417;SDS011;49;48.530;9.200;2023-06-26T13:36:38;11.50;;;7.90;;
417;SDS011;49;48.530;9.200;2023-06-26T13:39:07;11.70;;;7.57;;
417;SDS011;49;48.530;9.200;2023-06-26T13:41:38;16.53;;;7.30;;
417;SDS011;49;48.530;9.200;2023-06-26T13:44:07;12.03;;;7.33;;
417;SDS011;49;48.530;9.200;2023-06-26T13:46:37;14.83;;;7.63;;
417;SDS011;49;48.530;9.200;2023-06-26T13:49:04;11.63;;;7.53;;
417;SDS011;49;48.530;9.200;2023-06-26T13:51:38;12.00;;;7.20;;
417;SDS011;49;48.530;9.200;2023-06-26T13:54:10;9.30;;;6.90;;
417;SDS011;49;48.530;9.200;2023-06-26T13:56:38;14.30;;;7.20;;
417;SDS011;49;48.530;9.200;2023-06-26T13:59:08;14.40;;;7.20;;
417;SDS011;49;48.530;9.200;2023-06-26T14:01:37;16.27;;;7.00;;
417;SDS011;49;48.530;9.200;2023-06-26T14:04:11;16.40;;;7.00;;
417;SDS011;49;48.530;9.200;2023-06-26T14:06:40;14.77;;;8.20;;
417;SDS011;49;48.530;9.200;2023-06-26T14:09:16;58.63;;;12.33;;
417;SDS011;49;48.530;9.200;2023-06-26T14:11:52;14.17;;;8.60;;
417;SDS011;49;48.530;9.200;2023-06-26T14:14:36;36.17;;;8.77;;
417;SDS011;49;48.530;9.200;2023-06-26T14:17:07;11.00;;;7.50;;
417;SDS011;49;48.530;9.200;2023-06-26T14:19:49;13.50;;;6.77;;
417;SDS011;49;48.530;9.200;2023-06-26T14:22:19;10.87;;;6.60;;
417;SDS011;49;48.530;9.200;2023-06-26T14:24:54;11.10;;;7.00;;
417;SDS011;49;48.530;9.200;2023-06-26T14:27:27;11.90;;;7.83;;
417;SDS011;49;48.530;9.200;2023-06-26T14:29:58;12.97;;;7.40;;
417;SDS011;49;48.530;9.200;2023-06-26T14:32:29;12.10;;;7.53;;
417;SDS011;49;48.530;9.200;2023-06-26T14:35:01;10.83;;;7.30;;
417;SDS011;49;48.530;9.200;2023-06-26T14:37:31;10.80;;;7.47;;
417;SDS011;49;48.530;9.200;2023-06-26T14:40:12;10.70;;;7.53;;
417;SDS011;49;48.530;9.200;2023-06-26T14:42:48;10.00;;;6.63;;
417;SDS011;49;48.530;9.200;2023-06-26T14:45:21;11.23;;;7.13;;
417;SDS011;49;48.530;9.200;2023-06-26T14:48:08;9.33;;;7.17;;
417;SDS011;49;48.530;9.200;2023-06-26T14:50:58;9.33;;;6.50;;
417;SDS011;49;48.530;9.200;2023-06-26T14:53:29;11.53;;;6.80;;
417;SDS011;49;48.530;9.200;2023-06-26T14:56:05;12.83;;;5.80;;
417;SDS011;49;48.530;9.200;2023-06-26T14:58:43;12.13;;;6.17;;
417;SDS011;49;48.530;9.200;2023-06-26T15:01:16;8.73;;;6.43;;
417;SDS011;49;48.530;9.200;2023-06-26T15:03:58;12.00;;;6.60;;
417;SDS011;49;48.530;9.200;2023-06-26T15:06:36;12.37;;;6.67;;
417;SDS011;49;48.530;9.200;2023-06-26T15:09:13;12.63;;;6.50;;
417;SDS011;49;48.530;9.200;2023-06-26T15:12:01;18.57;;;6.60;;
417;SDS011;49;48.530;9.200;2023-06-26T15:14:28;19.20;;;5.87;;
417;SDS011;49;48.530;9.200;2023-06-26T15:17:03;6.50;;;5.10;;
417;SDS011;49;48.530;9.200;2023-06-26T15:19:36;7.20;;;5.33;;
417;SDS011;49;48.530;9.200;2023-06-26T15:22:16;12.53;;;5.80;;
417;SDS011;49;48.530;9.200;2023-06-26T15:25:01;10.67;;;5.97;;
417;SDS011;49;48.530;9.200;2023-06-26T15:27:33;21.13;;;6.40;;
417;SDS011;49;48.530;9.200;2023-06-26T15:30:11;9.37;;;5.00;;
417;SDS011;49;48.530;9.200;2023-06-26T15:32:40;9.83;;;5.77;;
417;SDS011;49;48.530;9.200;2023-06-26T15:35:08;9.50;;;5.20;;
417;SDS011;49;48.530;9.200;2023-06-26T15:37:37;10.47;;;5.30;;
417;SDS011;49;48.530;9.200;2023-06-26T15:40:07;11.07;;;5.27;;
417;SDS011;49;48.530;9.200;2023-06-26T15:42:47;5.97;;;4.43;;
417;SDS011;49;48.530;9.200;2023-06-26T15:45:15;10.80;;;5.57;;
417;SDS011;49;48.530;9.200;2023-06-26T15:47:49;7.70;;;4.70;;
417;SDS011;49;48.530;9.200;2023-06-26T15:50:17;8.00;;;4.60;;
417;SDS011;49;48.530;9.200;2023-06-26T15:52:48;16.63;;;4.93;;
417;SDS011;49;48.530;9.200;2023-06-26T15:55:17;7.80;;;4.30;;
417;SDS011;49;48.530;9.200;2023-06-26T15:57:54;6.40;;;4.77;;
417;SDS011;49;48.530;9.200;2023-06-26T16:00:25;11.00;;;4.60;;
417;SDS011;49;48.530;9.200;2023-06-26T16:02:57;9.70;;;4.73;;
417;SDS011;49;48.530;9.200;2023-06-26T16:05:24;7.03;;;5.00;;
417;SDS011;49;48.530;9.200;2023-06-26T16:07:53;8.87;;;4.47;;
417;SDS011;49;48.530;9.200;2023-06-26T16:10:20;15.50;;;5.17;;
417;SDS011;49;48.530;9.200;2023-06-26T16:12:54;7.10;;;4.60;;
417;SDS011;49;48.530;9.200;2023-06-26T16:15:21;8.70;;;5.50;;
417;SDS011;49;48.530;9.200;2023-06-26T16:17:49;14.63;;;5.27;;
417;SDS011;49;48.530;9.200;2023-06-26T16:20:19;9.50;;;5.00;;
417;SDS011;49;48.530;9.200;2023-06-26T16:25:24;7.87;;;4.97;;
417;SDS011;49;48.530;9.200;2023-06-26T16:27:53;9.00;;;5.13;;
417;SDS011;49;48.530;9.200;2023-06-26T16:30:21;11.67;;;5.90;;
417;SDS011;49;48.530;9.200;2023-06-26T16:32:48;18.63;;;6.33;;
417;SDS011;49;48.530;9.200;2023-06-26T16:35:24;12.50;;;5.57;;
417;SDS011;49;48.530;9.200;2023-06-26T16:37:57;14.23;;;5.77;;
417;SDS011;49;48.530;9.200;2023-06-26T16:40:32;15.00;;;5.43;;
417;SDS011;49;48.530;9.200;2023-06-26T16:43:23;9.70;;;5.80;;
417;SDS011;49;48.530;9.200;2023-06-26T16:45:51;13.03;;;5.43;;
417;SDS011;49;48.530;9.200;2023-06-26T16:48:19;11.53;;;6.07;;
417;SDS011;49;48.530;9.200;2023-06-26T16:50:54;10.87;;;7.47;;
417;SDS011;49;48.530;9.200;2023-06-26T16:53:26;11.23;;;5.80;;
417;SDS011;49;48.530;9.200;2023-06-26T16:56:00;17.60;;;7.30;;
417;SDS011;49;48.530;9.200;2023-06-26T16:58:37;16.83;;;6.70;;